Hama, Syria
Current Conditions -  °F | °C
As of 11:00 PM on Sunday 23 Nov 2014 (Local Time) from OSLK Reporting Station
Thunderstorm Thunderstorm  
Wind Chill: 55°   Ceiling: 3000
Heat Index: 55°   Visibility: 6mi
Dew Point: 48°   Wind: 1mph
Humidity: 77%   Direction: NA
Pressure: 29.94"   Gusts: NA
Location:  35.13°N, 36.75°E
Report Text: OSLK 232000Z VRB01KT 9999 TS SCT026CB BKN030 13/09 Q1014
Loading
Personal Weather Stations






























Interactive Weather Map New forecast layout! Learn more

10-Day Weather Forecast

Advertisements
Track Severe Weather on mobile